sensor_id;sensor_type;location;lat;lon;timestamp;temperature;humidity
2202;DHT22;1107;48.654;9.250;2022-09-14T00:01:20;20.40;98.40
2202;DHT22;1107;48.654;9.250;2022-09-14T00:03:51;20.40;1.00
2202;DHT22;1107;48.654;9.250;2022-09-14T00:06:18;20.40;1.00
2202;DHT22;1107;48.654;9.250;2022-09-14T00:08:49;20.40;1.00
2202;DHT22;1107;48.654;9.250;2022-09-14T00:11:17;20.40;1.00
2202;DHT22;1107;48.654;9.250;2022-09-14T00:13:45;20.30;8.70
2202;DHT22;1107;48.654;9.250;2022-09-14T00:16:30;20.30;27.30
2202;DHT22;1107;48.654;9.250;2022-09-14T00:18:58;20.30;31.00
2202;DHT22;1107;48.654;9.250;2022-09-14T00:21:26;20.30;99.90
2202;DHT22;1107;48.654;9.250;2022-09-14T00:23:53;20.30;99.90
2202;DHT22;1107;48.654;9.250;2022-09-14T00:26:22;20.30;99.90
2202;DHT22;1107;48.654;9.250;2022-09-14T00:28:52;20.40;99.90
2202;DHT22;1107;48.654;9.250;2022-09-14T00:31:20;20.40;99.90
2202;DHT22;1107;48.654;9.250;2022-09-14T00:33:49;20.40;99.90
2202;DHT22;1107;48.654;9.250;2022-09-14T00:36:18;20.40;99.90
2202;DHT22;1107;48.654;9.250;2022-09-14T00:38:46;20.40;67.20
2202;DHT22;1107;48.654;9.250;2022-09-14T00:41:17;20.30;56.30
2202;DHT22;1107;48.654;9.250;2022-09-14T00:43:56;20.30;48.90
2202;DHT22;1107;48.654;9.250;2022-09-14T00:46:24;20.30;99.90
2202;DHT22;1107;48.654;9.250;2022-09-14T00:48:53;20.20;41.60
2202;DHT22;1107;48.654;9.250;2022-09-14T00:51:21;20.20;27.70
2202;DHT22;1107;48.654;9.250;2022-09-14T00:53:49;20.20;17.20
2202;DHT22;1107;48.654;9.250;2022-09-14T00:56:16;20.20;35.00
2202;DHT22;1107;48.654;9.250;2022-09-14T00:58:45;20.20;99.90
2202;DHT22;1107;48.654;9.250;2022-09-14T01:01:14;20.20;99.90
2202;DHT22;1107;48.654;9.250;2022-09-14T01:03:41;20.20;99.90
2202;DHT22;1107;48.654;9.250;2022-09-14T01:06:17;20.10;99.90
2202;DHT22;1107;48.654;9.250;2022-09-14T01:09:02;20.10;99.90
2202;DHT22;1107;48.654;9.250;2022-09-14T01:11:45;20.00;99.90
2202;DHT22;1107;48.654;9.250;2022-09-14T01:14:24;20.00;99.90
2202;DHT22;1107;48.654;9.250;2022-09-14T01:16:58;19.90;1.00
2202;DHT22;1107;48.654;9.250;2022-09-14T01:19:37;19.90;1.00
2202;DHT22;1107;48.654;9.250;2022-09-14T01:22:16;19.80;1.00
2202;DHT22;1107;48.654;9.250;2022-09-14T01:24:47;19.80;99.90
2202;DHT22;1107;48.654;9.250;2022-09-14T01:27:21;19.70;1.00
2202;DHT22;1107;48.654;9.250;2022-09-14T01:29:56;19.70;99.90
2202;DHT22;1107;48.654;9.250;2022-09-14T01:32:28;19.60;1.00
2202;DHT22;1107;48.654;9.250;2022-09-14T01:35:01;19.50;99.90
2202;DHT22;1107;48.654;9.250;2022-09-14T01:37:34;19.40;1.00
2202;DHT22;1107;48.654;9.250;2022-09-14T01:40:05;19.40;99.90
2202;DHT22;1107;48.654;9.250;2022-09-14T01:42:34;19.40;1.00
2202;DHT22;1107;48.654;9.250;2022-09-14T01:45:07;19.40;1.00
2202;DHT22;1107;48.654;9.250;2022-09-14T01:47:38;19.40;1.00
2202;DHT22;1107;48.654;9.250;2022-09-14T01:50:12;19.40;1.00
2202;DHT22;1107;48.654;9.250;2022-09-14T01:52:43;19.40;1.00
2202;DHT22;1107;48.654;9.250;2022-09-14T01:55:15;19.20;1.00
2202;DHT22;1107;48.654;9.250;2022-09-14T01:57:48;19.10;1.00
2202;DHT22;1107;48.654;9.250;2022-09-14T02:00:18;19.00;1.00
2202;DHT22;1107;48.654;9.250;2022-09-14T02:02:48;18.90;45.20
2202;DHT22;1107;48.654;9.250;2022-09-14T02:05:18;18.90;24.20
2202;DHT22;1107;48.654;9.250;2022-09-14T02:07:47;18.90;49.30
2202;DHT22;1107;48.654;9.250;2022-09-14T02:10:15;18.90;43.50
2202;DHT22;1107;48.654;9.250;2022-09-14T02:12:44;18.90;76.10
2202;DHT22;1107;48.654;9.250;2022-09-14T02:15:13;19.00;5.70
2202;DHT22;1107;48.654;9.250;2022-09-14T02:17:41;19.00;24.10
2202;DHT22;1107;48.654;9.250;2022-09-14T02:20:13;19.10;1.00
2202;DHT22;1107;48.654;9.250;2022-09-14T02:22:41;19.10;1.00
2202;DHT22;1107;48.654;9.250;2022-09-14T02:25:08;19.10;13.90
2202;DHT22;1107;48.654;9.250;2022-09-14T02:27:35;19.00;1.00
2202;DHT22;1107;48.654;9.250;2022-09-14T02:30:05;19.00;49.80
2202;DHT22;1107;48.654;9.250;2022-09-14T02:32:42;19.00;1.00
2202;DHT22;1107;48.654;9.250;2022-09-14T02:35:17;19.10;1.00
2202;DHT22;1107;48.654;9.250;2022-09-14T02:37:52;19.10;27.10
2202;DHT22;1107;48.654;9.250;2022-09-14T02:40:25;19.10;7.30
2202;DHT22;1107;48.654;9.250;2022-09-14T02:43:01;19.10;30.40
2202;DHT22;1107;48.654;9.250;2022-09-14T02:45:38;19.10;5.10
2202;DHT22;1107;48.654;9.250;2022-09-14T02:48:12;19.20;1.00
2202;DHT22;1107;48.654;9.250;2022-09-14T02:50:44;19.20;3.30
2202;DHT22;1107;48.654;9.250;2022-09-14T02:53:17;19.20;1.00
2202;DHT22;1107;48.654;9.250;2022-09-14T02:55:49;19.20;1.00
2202;DHT22;1107;48.654;9.250;2022-09-14T02:58:17;19.10;14.20
2202;DHT22;1107;48.654;9.250;2022-09-14T03:00:46;19.00;11.30
2202;DHT22;1107;48.654;9.250;2022-09-14T03:03:15;19.00;58.50
2202;DHT22;1107;48.654;9.250;2022-09-14T03:05:42;19.00;28.50
2202;DHT22;1107;48.654;9.250;2022-09-14T03:08:09;18.90;1.00
2202;DHT22;1107;48.654;9.250;2022-09-14T03:10:37;18.80;56.80
2202;DHT22;1107;48.654;9.250;2022-09-14T03:13:04;18.70;63.50
2202;DHT22;1107;48.654;9.250;2022-09-14T03:15:31;18.60;99.90
2202;DHT22;1107;48.654;9.250;2022-09-14T03:18:00;18.50;99.90
2202;DHT22;1107;48.654;9.250;2022-09-14T03:20:28;18.40;99.90
2202;DHT22;1107;48.654;9.250;2022-09-14T03:22:55;18.40;99.90
2202;DHT22;1107;48.654;9.250;2022-09-14T03:25:23;18.50;99.90
2202;DHT22;1107;48.654;9.250;2022-09-14T03:27:53;18.50;99.90
2202;DHT22;1107;48.654;9.250;2022-09-14T03:30:20;18.50;99.90
2202;DHT22;1107;48.654;9.250;2022-09-14T03:32:48;18.50;99.90
2202;DHT22;1107;48.654;9.250;2022-09-14T03:35:17;18.50;99.90
2202;DHT22;1107;48.654;9.250;2022-09-14T03:37:45;18.50;99.90
2202;DHT22;1107;48.654;9.250;2022-09-14T03:40:14;18.60;93.50
2202;DHT22;1107;48.654;9.250;2022-09-14T03:42:42;18.60;99.90
2202;DHT22;1107;48.654;9.250;2022-09-14T03:45:10;18.50;99.90
2202;DHT22;1107;48.654;9.250;2022-09-14T03:47:37;18.50;99.90
2202;DHT22;1107;48.654;9.250;2022-09-14T03:50:05;18.50;99.90
2202;DHT22;1107;48.654;9.250;2022-09-14T03:52:34;18.50;99.90
2202;DHT22;1107;48.654;9.250;2022-09-14T03:55:03;18.50;99.90
2202;DHT22;1107;48.654;9.250;2022-09-14T03:57:31;18.50;99.90
2202;DHT22;1107;48.654;9.250;2022-09-14T03:59:58;18.40;99.90
2202;DHT22;1107;48.654;9.250;2022-09-14T04:02:25;18.40;99.90
2202;DHT22;1107;48.654;9.250;2022-09-14T04:04:53;18.40;99.90
2202;DHT22;1107;48.654;9.250;2022-09-14T04:07:20;18.30;99.90
2202;DHT22;1107;48.654;9.250;2022-09-14T04:09:48;18.30;99.90
2202;DHT22;1107;48.654;9.250;2022-09-14T04:12:15;18.30;99.90
2202;DHT22;1107;48.654;9.250;2022-09-14T04:14:42;18.20;99.90
2202;DHT22;1107;48.654;9.250;2022-09-14T04:17:09;18.20;99.90
2202;DHT22;1107;48.654;9.250;2022-09-14T04:19:36;18.20;99.90
2202;DHT22;1107;48.654;9.250;2022-09-14T04:22:06;18.10;99.90
2202;DHT22;1107;48.654;9.250;2022-09-14T04:24:33;18.00;99.90
2202;DHT22;1107;48.654;9.250;2022-09-14T04:27:02;17.90;99.90
2202;DHT22;1107;48.654;9.250;2022-09-14T04:29:29;17.80;99.90
2202;DHT22;1107;48.654;9.250;2022-09-14T04:31:56;17.80;99.90
2202;DHT22;1107;48.654;9.250;2022-09-14T04:34:23;17.70;99.90
2202;DHT22;1107;48.654;9.250;2022-09-14T04:36:50;17.60;99.90
2202;DHT22;1107;48.654;9.250;2022-09-14T04:39:17;17.60;99.90
2202;DHT22;1107;48.654;9.250;2022-09-14T04:41:44;17.60;99.90
2202;DHT22;1107;48.654;9.250;2022-09-14T04:44:13;17.60;99.90
2202;DHT22;1107;48.654;9.250;2022-09-14T04:46:40;17.60;99.90
2202;DHT22;1107;48.654;9.250;2022-09-14T04:49:07;17.50;99.90
2202;DHT22;1107;48.654;9.250;2022-09-14T04:51:35;17.60;99.90
2202;DHT22;1107;48.654;9.250;2022-09-14T04:54:04;17.60;99.90
2202;DHT22;1107;48.654;9.250;2022-09-14T04:56:33;17.60;99.90
2202;DHT22;1107;48.654;9.250;2022-09-14T04:59:02;17.60;99.90
2202;DHT22;1107;48.654;9.250;2022-09-14T05:01:33;17.60;99.90
2202;DHT22;1107;48.654;9.250;2022-09-14T05:04:01;17.60;99.90
2202;DHT22;1107;48.654;9.250;2022-09-14T05:06:30;17.50;99.90
2202;DHT22;1107;48.654;9.250;2022-09-14T05:08:58;17.50;99.90
2202;DHT22;1107;48.654;9.250;2022-09-14T05:11:27;17.50;99.90
2202;DHT22;1107;48.654;9.250;2022-09-14T05:13:55;17.50;99.90
2202;DHT22;1107;48.654;9.250;2022-09-14T05:16:24;17.50;99.90
2202;DHT22;1107;48.654;9.250;2022-09-14T05:18:55;17.50;99.90
2202;DHT22;1107;48.654;9.250;2022-09-14T05:21:23;17.50;99.90
2202;DHT22;1107;48.654;9.250;2022-09-14T05:23:54;17.60;99.90
2202;DHT22;1107;48.654;9.250;2022-09-14T05:26:22;17.60;99.90
2202;DHT22;1107;48.654;9.250;2022-09-14T05:28:50;17.70;99.90
2202;DHT22;1107;48.654;9.250;2022-09-14T05:31:18;17.80;99.90
2202;DHT22;1107;48.654;9.250;2022-09-14T05:33:45;17.80;99.90
2202;DHT22;1107;48.654;9.250;2022-09-14T05:36:14;17.90;99.90
2202;DHT22;1107;48.654;9.250;2022-09-14T05:38:41;17.90;99.90
2202;DHT22;1107;48.654;9.250;2022-09-14T05:41:11;18.00;99.90
2202;DHT22;1107;48.654;9.250;2022-09-14T05:43:38;18.00;99.90
2202;DHT22;1107;48.654;9.250;2022-09-14T05:46:08;18.10;99.90
2202;DHT22;1107;48.654;9.250;2022-09-14T05:48:36;18.10;99.90
2202;DHT22;1107;48.654;9.250;2022-09-14T05:51:06;18.20;99.90
2202;DHT22;1107;48.654;9.250;2022-09-14T05:53:35;18.30;99.90
2202;DHT22;1107;48.654;9.250;2022-09-14T05:56:04;18.30;99.90
2202;DHT22;1107;48.654;9.250;2022-09-14T05:58:31;18.40;99.90
2202;DHT22;1107;48.654;9.250;2022-09-14T06:01:05;18.50;99.90
2202;DHT22;1107;48.654;9.250;2022-09-14T06:03:32;18.60;99.90
2202;DHT22;1107;48.654;9.250;2022-09-14T06:06:00;18.80;99.90
2202;DHT22;1107;48.654;9.250;2022-09-14T06:08:27;18.90;99.90
2202;DHT22;1107;48.654;9.250;2022-09-14T06:10:55;19.00;99.90
2202;DHT22;1107;48.654;9.250;2022-09-14T06:13:22;19.10;99.90
2202;DHT22;1107;48.654;9.250;2022-09-14T06:15:49;19.20;99.90
2202;DHT22;1107;48.654;9.250;2022-09-14T06:18:16;19.30;99.90
2202;DHT22;1107;48.654;9.250;2022-09-14T06:20:50;19.30;99.90
2202;DHT22;1107;48.654;9.250;2022-09-14T06:23:17;19.40;99.90
2202;DHT22;1107;48.654;9.250;2022-09-14T06:25:44;19.70;97.40
2202;DHT22;1107;48.654;9.250;2022-09-14T06:28:12;19.80;68.70
2202;DHT22;1107;48.654;9.250;2022-09-14T06:30:42;19.80;40.90
2202;DHT22;1107;48.654;9.250;2022-09-14T06:33:09;19.90;55.80
2202;DHT22;1107;48.654;9.250;2022-09-14T06:35:36;20.00;14.40
2202;DHT22;1107;48.654;9.250;2022-09-14T06:38:03;20.00;1.20
2202;DHT22;1107;48.654;9.250;2022-09-14T06:40:30;20.00;1.00
2202;DHT22;1107;48.654;9.250;2022-09-14T06:42:57;20.00;1.00
2202;DHT22;1107;48.654;9.250;2022-09-14T06:45:28;19.90;1.20
2202;DHT22;1107;48.654;9.250;2022-09-14T06:47:56;19.90;23.90
2202;DHT22;1107;48.654;9.250;2022-09-14T06:50:23;19.90;12.70
2202;DHT22;1107;48.654;9.250;2022-09-14T06:52:50;20.00;4.50
2202;DHT22;1107;48.654;9.250;2022-09-14T06:55:17;20.10;5.30
2202;DHT22;1107;48.654;9.250;2022-09-14T06:57:46;20.20;1.00
2202;DHT22;1107;48.654;9.250;2022-09-14T07:00:14;20.20;1.00
2202;DHT22;1107;48.654;9.250;2022-09-14T07:02:43;20.40;1.00
2202;DHT22;1107;48.654;9.250;2022-09-14T07:05:11;20.40;1.00
2202;DHT22;1107;48.654;9.250;2022-09-14T07:07:40;20.50;1.00
2202;DHT22;1107;48.654;9.250;2022-09-14T07:10:07;20.50;1.00
2202;DHT22;1107;48.654;9.250;2022-09-14T07:12:36;20.70;1.00
2202;DHT22;1107;48.654;9.250;2022-09-14T07:15:03;20.80;1.00
2202;DHT22;1107;48.654;9.250;2022-09-14T07:17:32;20.90;1.00
2202;DHT22;1107;48.654;9.250;2022-09-14T07:20:02;21.00;1.00
2202;DHT22;1107;48.654;9.250;2022-09-14T07:22:32;21.10;1.00
2202;DHT22;1107;48.654;9.250;2022-09-14T07:24:59;21.60;99.90
2202;DHT22;1107;48.654;9.250;2022-09-14T07:27:26;22.00;99.90
2202;DHT22;1107;48.654;9.250;2022-09-14T07:29:53;21.80;1.00
2202;DHT22;1107;48.654;9.250;2022-09-14T07:32:20;21.60;99.90
2202;DHT22;1107;48.654;9.250;2022-09-14T07:34:47;21.40;1.00
2202;DHT22;1107;48.654;9.250;2022-09-14T07:37:15;21.40;99.90
2202;DHT22;1107;48.654;9.250;2022-09-14T07:39:42;21.40;99.90
2202;DHT22;1107;48.654;9.250;2022-09-14T07:42:09;21.50;99.90
2202;DHT22;1107;48.654;9.250;2022-09-14T07:44:36;22.00;29.10
2202;DHT22;1107;48.654;9.250;2022-09-14T07:47:03;22.50;1.00
2202;DHT22;1107;48.654;9.250;2022-09-14T07:49:30;22.90;99.90
2202;DHT22;1107;48.654;9.250;2022-09-14T07:51:57;23.00;1.00
2202;DHT22;1107;48.654;9.250;2022-09-14T07:54:25;23.30;99.90
2202;DHT22;1107;48.654;9.250;2022-09-14T07:56:52;23.60;1.00
2202;DHT22;1107;48.654;9.250;2022-09-14T07:59:20;23.90;99.90
2202;DHT22;1107;48.654;9.250;2022-09-14T08:01:47;23.90;1.70
2202;DHT22;1107;48.654;9.250;2022-09-14T08:04:14;24.60;1.00
2202;DHT22;1107;48.654;9.250;2022-09-14T08:06:41;24.90;99.90
2202;DHT22;1107;48.654;9.250;2022-09-14T08:09:08;24.90;99.90
2202;DHT22;1107;48.654;9.250;2022-09-14T08:11:37;25.40;99.90
2202;DHT22;1107;48.654;9.250;2022-09-14T08:14:05;25.20;99.90
2202;DHT22;1107;48.654;9.250;2022-09-14T08:16:34;25.30;99.90
2202;DHT22;1107;48.654;9.250;2022-09-14T08:19:04;25.40;32.00
2202;DHT22;1107;48.654;9.250;2022-09-14T08:21:32;25.30;66.70
2202;DHT22;1107;48.654;9.250;2022-09-14T08:24:00;24.90;99.90
2202;DHT22;1107;48.654;9.250;2022-09-14T08:26:29;25.00;99.90
2202;DHT22;1107;48.654;9.250;2022-09-14T08:28:58;24.60;99.90
2202;DHT22;1107;48.654;9.250;2022-09-14T08:31:26;24.60;99.90
2202;DHT22;1107;48.654;9.250;2022-09-14T08:33:56;24.70;1.00
2202;DHT22;1107;48.654;9.250;2022-09-14T08:36:25;24.50;1.00
2202;DHT22;1107;48.654;9.250;2022-09-14T08:38:52;24.00;1.00
2202;DHT22;1107;48.654;9.250;2022-09-14T08:41:28;24.00;99.90
2202;DHT22;1107;48.654;9.250;2022-09-14T08:44:02;23.70;52.00
2202;DHT22;1107;48.654;9.250;2022-09-14T08:46:33;23.40;1.00
2202;DHT22;1107;48.654;9.250;2022-09-14T08:49:04;23.10;1.00
2202;DHT22;1107;48.654;9.250;2022-09-14T08:51:32;22.90;75.90
2202;DHT22;1107;48.654;9.250;2022-09-14T08:53:59;22.90;92.50
2202;DHT22;1107;48.654;9.250;2022-09-14T08:56:31;23.00;1.00
2202;DHT22;1107;48.654;9.250;2022-09-14T08:59:30;23.60;1.00
2202;DHT22;1107;48.654;9.250;2022-09-14T09:02:13;24.40;1.00
2202;DHT22;1107;48.654;9.250;2022-09-14T09:04:50;25.30;99.90
2202;DHT22;1107;48.654;9.250;2022-09-14T09:07:24;26.60;1.00
2202;DHT22;1107;48.654;9.250;2022-09-14T09:09:56;27.10;1.00
2202;DHT22;1107;48.654;9.250;2022-09-14T09:12:31;27.80;1.00
2202;DHT22;1107;48.654;9.250;2022-09-14T09:15:04;28.30;1.00
2202;DHT22;1107;48.654;9.250;2022-09-14T09:17:37;27.80;1.00
2202;DHT22;1107;48.654;9.250;2022-09-14T09:20:10;28.40;1.00
2202;DHT22;1107;48.654;9.250;2022-09-14T09:22:42;28.40;1.00
2202;DHT22;1107;48.654;9.250;2022-09-14T09:25:17;29.30;99.90
2202;DHT22;1107;48.654;9.250;2022-09-14T09:27:47;29.00;99.90
2202;DHT22;1107;48.654;9.250;2022-09-14T09:30:16;29.30;99.90
2202;DHT22;1107;48.654;9.250;2022-09-14T09:32:43;28.90;99.90
2202;DHT22;1107;48.654;9.250;2022-09-14T09:35:13;29.20;99.90
2202;DHT22;1107;48.654;9.250;2022-09-14T09:37:42;29.80;99.90
2202;DHT22;1107;48.654;9.250;2022-09-14T09:40:16;29.80;99.90
2202;DHT22;1107;48.654;9.250;2022-09-14T09:43:04;29.50;99.90
2202;DHT22;1107;48.654;9.250;2022-09-14T09:45:49;27.80;99.90
2202;DHT22;1107;48.654;9.250;2022-09-14T09:48:19;28.20;99.90
2202;DHT22;1107;48.654;9.250;2022-09-14T09:50:48;28.60;99.90
2202;DHT22;1107;48.654;9.250;2022-09-14T09:53:19;29.30;99.90
2202;DHT22;1107;48.654;9.250;2022-09-14T09:55:48;28.50;99.90
2202;DHT22;1107;48.654;9.250;2022-09-14T09:58:21;27.70;99.90
2202;DHT22;1107;48.654;9.250;2022-09-14T10:00:56;27.70;99.90
2202;DHT22;1107;48.654;9.250;2022-09-14T10:03:30;28.80;99.90
2202;DHT22;1107;48.654;9.250;2022-09-14T10:06:01;29.20;99.90
2202;DHT22;1107;48.654;9.250;2022-09-14T10:08:30;27.90;99.90
2202;DHT22;1107;48.654;9.250;2022-09-14T10:11:00;28.40;99.90
2202;DHT22;1107;48.654;9.250;2022-09-14T10:13:31;28.80;99.90
2202;DHT22;1107;48.654;9.250;2022-09-14T10:16:07;29.30;99.90
2202;DHT22;1107;48.654;9.250;2022-09-14T10:18:42;29.40;99.90
2202;DHT22;1107;48.654;9.250;2022-09-14T10:21:09;28.90;99.90
2202;DHT22;1107;48.654;9.250;2022-09-14T10:23:37;29.10;99.90
2202;DHT22;1107;48.654;9.250;2022-09-14T10:26:21;28.70;99.90
2202;DHT22;1107;48.654;9.250;2022-09-14T10:28:50;28.50;99.90
2202;DHT22;1107;48.654;9.250;2022-09-14T10:31:24;27.20;99.90
2202;DHT22;1107;48.654;9.250;2022-09-14T10:33:55;27.10;99.90
2202;DHT22;1107;48.654;9.250;2022-09-14T10:36:24;26.50;99.90
2202;DHT22;1107;48.654;9.250;2022-09-14T10:38:53;26.90;99.90
2202;DHT22;1107;48.654;9.250;2022-09-14T10:41:25;26.80;99.90
2202;DHT22;1107;48.654;9.250;2022-09-14T10:44:17;27.10;99.90
2202;DHT22;1107;48.654;9.250;2022-09-14T10:47:03;27.20;99.90
2202;DHT22;1107;48.654;9.250;2022-09-14T10:49:42;27.00;99.90
2202;DHT22;1107;48.654;9.250;2022-09-14T10:52:18;26.70;99.90
2202;DHT22;1107;48.654;9.250;2022-09-14T10:57:55;26.30;99.90
2202;DHT22;1107;48.654;9.250;2022-09-14T11:00:23;26.50;99.90
2202;DHT22;1107;48.654;9.250;2022-09-14T11:03:09;26.80;99.90
2202;DHT22;1107;48.654;9.250;2022-09-14T11:05:42;27.30;99.90
2202;DHT22;1107;48.654;9.250;2022-09-14T11:08:16;27.60;99.90
2202;DHT22;1107;48.654;9.250;2022-09-14T11:10:58;28.10;99.90
2202;DHT22;1107;48.654;9.250;2022-09-14T11:13:45;28.50;99.90
2202;DHT22;1107;48.654;9.250;2022-09-14T11:16:29;28.50;99.90
2202;DHT22;1107;48.654;9.250;2022-09-14T11:19:09;28.90;99.90
2202;DHT22;1107;48.654;9.250;2022-09-14T11:21:45;29.10;99.90
2202;DHT22;1107;48.654;9.250;2022-09-14T11:24:20;28.80;99.90
2202;DHT22;1107;48.654;9.250;2022-09-14T11:26:59;29.30;99.90
2202;DHT22;1107;48.654;9.250;2022-09-14T11:29:32;29.30;99.90
2202;DHT22;1107;48.654;9.250;2022-09-14T11:32:05;29.10;99.90
2202;DHT22;1107;48.654;9.250;2022-09-14T11:34:36;28.80;99.90
2202;DHT22;1107;48.654;9.250;2022-09-14T11:37:07;29.60;99.90
2202;DHT22;1107;48.654;9.250;2022-09-14T11:39:38;28.70;99.90
2202;DHT22;1107;48.654;9.250;2022-09-14T11:42:11;28.10;99.90
2202;DHT22;1107;48.654;9.250;2022-09-14T11:44:41;28.30;99.90
2202;DHT22;1107;48.654;9.250;2022-09-14T11:47:12;27.80;99.90
2202;DHT22;1107;48.654;9.250;2022-09-14T11:49:55;27.30;99.90
2202;DHT22;1107;48.654;9.250;2022-09-14T11:52:23;26.80;99.90
2202;DHT22;1107;48.654;9.250;2022-09-14T11:54:51;26.30;99.90
2202;DHT22;1107;48.654;9.250;2022-09-14T11:57:21;26.10;99.90
2202;DHT22;1107;48.654;9.250;2022-09-14T11:59:51;26.00;99.90
2202;DHT22;1107;48.654;9.250;2022-09-14T12:05:38;26.20;99.90
2202;DHT22;1107;48.654;9.250;2022-09-14T12:08:27;26.00;99.90
2202;DHT22;1107;48.654;9.250;2022-09-14T12:11:04;25.90;99.90
2202;DHT22;1107;48.654;9.250;2022-09-14T12:13:49;25.90;99.90
2202;DHT22;1107;48.654;9.250;2022-09-14T12:19:35;25.90;99.90
2202;DHT22;1107;48.654;9.250;2022-09-14T12:25:00;25.50;99.90
2202;DHT22;1107;48.654;9.250;2022-09-14T12:27:29;25.40;99.90
2202;DHT22;1107;48.654;9.250;2022-09-14T12:29:57;25.50;99.90
2202;DHT22;1107;48.654;9.250;2022-09-14T12:32:27;25.50;99.90
2202;DHT22;1107;48.654;9.250;2022-09-14T12:35:39;25.20;99.90
2202;DHT22;1107;48.654;9.250;2022-09-14T12:38:40;25.20;99.90
2202;DHT22;1107;48.654;9.250;2022-09-14T12:44:33;25.00;99.90
2202;DHT22;1107;48.654;9.250;2022-09-14T12:50:07;24.80;1.00
2202;DHT22;1107;48.654;9.250;2022-09-14T12:52:40;24.70;1.00
2202;DHT22;1107;48.654;9.250;2022-09-14T12:58:15;24.20;1.00
2202;DHT22;1107;48.654;9.250;2022-09-14T13:00:53;23.70;99.90
2202;DHT22;1107;48.654;9.250;2022-09-14T13:03:45;23.40;1.00
2202;DHT22;1107;48.654;9.250;2022-09-14T13:06:13;23.20;1.00
2202;DHT22;1107;48.654;9.250;2022-09-14T13:08:46;23.20;99.90
2202;DHT22;1107;48.654;9.250;2022-09-14T13:11:23;23.20;99.90
2202;DHT22;1107;48.654;9.250;2022-09-14T13:13:51;23.00;1.00
2202;DHT22;1107;48.654;9.250;2022-09-14T13:16:27;22.80;1.00
2202;DHT22;1107;48.654;9.250;2022-09-14T13:18:59;22.60;1.00
2202;DHT22;1107;48.654;9.250;2022-09-14T13:21:27;22.20;1.00
2202;DHT22;1107;48.654;9.250;2022-09-14T13:23:54;22.10;1.00
2202;DHT22;1107;48.654;9.250;2022-09-14T13:26:23;21.90;1.00
2202;DHT22;1107;48.654;9.250;2022-09-14T13:28:52;21.80;1.00
2202;DHT22;1107;48.654;9.250;2022-09-14T13:31:26;21.60;1.00
2202;DHT22;1107;48.654;9.250;2022-09-14T13:33:54;21.30;71.50
2202;DHT22;1107;48.654;9.250;2022-09-14T13:36:24;21.30;58.10
2202;DHT22;1107;48.654;9.250;2022-09-14T13:38:52;21.20;99.90
2202;DHT22;1107;48.654;9.250;2022-09-14T13:41:21;21.10;1.00
2202;DHT22;1107;48.654;9.250;2022-09-14T13:43:51;21.10;99.90
2202;DHT22;1107;48.654;9.250;2022-09-14T13:46:19;21.10;1.00
2202;DHT22;1107;48.654;9.250;2022-09-14T13:48:48;21.20;1.00
2202;DHT22;1107;48.654;9.250;2022-09-14T13:51:22;21.10;99.90
2202;DHT22;1107;48.654;9.250;2022-09-14T13:53:51;21.30;1.00
2202;DHT22;1107;48.654;9.250;2022-09-14T13:56:26;21.30;1.00
2202;DHT22;1107;48.654;9.250;2022-09-14T13:59:18;21.30;1.00
2202;DHT22;1107;48.654;9.250;2022-09-14T14:01:55;21.30;1.00
2202;DHT22;1107;48.654;9.250;2022-09-14T14:04:28;21.30;99.90
2202;DHT22;1107;48.654;9.250;2022-09-14T14:07:01;21.20;1.00
2202;DHT22;1107;48.654;9.250;2022-09-14T14:09:38;21.20;1.00
2202;DHT22;1107;48.654;9.250;2022-09-14T14:12:08;21.30;99.90
2202;DHT22;1107;48.654;9.250;2022-09-14T14:14:36;21.30;99.90
2202;DHT22;1107;48.654;9.250;2022-09-14T14:17:29;21.40;99.90
2202;DHT22;1107;48.654;9.250;2022-09-14T14:20:23;21.50;1.00
2202;DHT22;1107;48.654;9.250;2022-09-14T14:22:54;21.40;99.90
2202;DHT22;1107;48.654;9.250;2022-09-14T14:25:27;21.30;1.00
2202;DHT22;1107;48.654;9.250;2022-09-14T14:28:00;21.00;1.00
2202;DHT22;1107;48.654;9.250;2022-09-14T14:30:29;21.00;1.00
2202;DHT22;1107;48.654;9.250;2022-09-14T14:32:57;20.90;1.00
2202;DHT22;1107;48.654;9.250;2022-09-14T14:35:28;20.80;1.00
2202;DHT22;1107;48.654;9.250;2022-09-14T14:37:55;20.80;1.00
2202;DHT22;1107;48.654;9.250;2022-09-14T14:40:24;20.70;1.00
2202;DHT22;1107;48.654;9.250;2022-09-14T14:42:52;20.70;1.00
2202;DHT22;1107;48.654;9.250;2022-09-14T14:45:22;20.60;1.00
2202;DHT22;1107;48.654;9.250;2022-09-14T14:47:51;20.60;1.00
2202;DHT22;1107;48.654;9.250;2022-09-14T14:50:21;20.60;1.00
2202;DHT22;1107;48.654;9.250;2022-09-14T14:52:50;20.40;1.00
2202;DHT22;1107;48.654;9.250;2022-09-14T14:55:18;20.40;1.00
2202;DHT22;1107;48.654;9.250;2022-09-14T14:57:45;20.30;1.00
2202;DHT22;1107;48.654;9.250;2022-09-14T15:00:16;20.20;1.00
2202;DHT22;1107;48.654;9.250;2022-09-14T15:02:44;20.10;1.00
2202;DHT22;1107;48.654;9.250;2022-09-14T15:05:11;19.80;1.00
2202;DHT22;1107;48.654;9.250;2022-09-14T15:07:38;19.80;1.00
2202;DHT22;1107;48.654;9.250;2022-09-14T15:10:09;19.70;1.00
2202;DHT22;1107;48.654;9.250;2022-09-14T15:12:37;19.60;1.00
2202;DHT22;1107;48.654;9.250;2022-09-14T15:15:06;19.60;1.00
2202;DHT22;1107;48.654;9.250;2022-09-14T15:17:37;19.50;1.00
2202;DHT22;1107;48.654;9.250;2022-09-14T15:20:05;19.40;1.00
2202;DHT22;1107;48.654;9.250;2022-09-14T15:22:32;19.40;1.00
2202;DHT22;1107;48.654;9.250;2022-09-14T15:24:59;19.30;1.00
2202;DHT22;1107;48.654;9.250;2022-09-14T15:27:28;19.30;1.00
2202;DHT22;1107;48.654;9.250;2022-09-14T15:29:55;19.40;1.00
2202;DHT22;1107;48.654;9.250;2022-09-14T15:32:22;19.40;1.00
2202;DHT22;1107;48.654;9.250;2022-09-14T15:34:49;19.60;1.00
2202;DHT22;1107;48.654;9.250;2022-09-14T15:37:17;19.80;1.00
2202;DHT22;1107;48.654;9.250;2022-09-14T15:39:44;20.00;1.00
2202;DHT22;1107;48.654;9.250;2022-09-14T15:42:12;19.90;1.00
2202;DHT22;1107;48.654;9.250;2022-09-14T15:44:40;19.90;1.00
2202;DHT22;1107;48.654;9.250;2022-09-14T15:47:08;19.60;1.00
2202;DHT22;1107;48.654;9.250;2022-09-14T15:49:35;19.40;1.00
2202;DHT22;1107;48.654;9.250;2022-09-14T15:52:02;19.40;1.00
2202;DHT22;1107;48.654;9.250;2022-09-14T15:54:31;19.50;1.00
2202;DHT22;1107;48.654;9.250;2022-09-14T15:56:58;19.40;1.00
2202;DHT22;1107;48.654;9.250;2022-09-14T15:59:26;19.40;1.00
2202;DHT22;1107;48.654;9.250;2022-09-14T16:01:54;19.40;1.00
2202;DHT22;1107;48.654;9.250;2022-09-14T16:04:21;19.40;1.00
2202;DHT22;1107;48.654;9.250;2022-09-14T16:06:49;19.50;1.00
2202;DHT22;1107;48.654;9.250;2022-09-14T16:09:17;19.60;1.00
2202;DHT22;1107;48.654;9.250;2022-09-14T16:11:46;19.70;1.00
2202;DHT22;1107;48.654;9.250;2022-09-14T16:14:13;19.70;1.00
2202;DHT22;1107;48.654;9.250;2022-09-14T16:16:40;19.70;1.00
2202;DHT22;1107;48.654;9.250;2022-09-14T16:19:09;19.70;1.00
2202;DHT22;1107;48.654;9.250;2022-09-14T16:21:37;19.70;1.00
2202;DHT22;1107;48.654;9.250;2022-09-14T16:24:06;19.60;1.00
2202;DHT22;1107;48.654;9.250;2022-09-14T16:26:34;19.50;1.00
2202;DHT22;1107;48.654;9.250;2022-09-14T16:29:03;19.40;1.00
2202;DHT22;1107;48.654;9.250;2022-09-14T16:31:32;19.40;1.00
2202;DHT22;1107;48.654;9.250;2022-09-14T16:34:02;19.30;1.00
2202;DHT22;1107;48.654;9.250;2022-09-14T16:36:38;19.40;1.00
2202;DHT22;1107;48.654;9.250;2022-09-14T16:39:13;19.40;1.00
2202;DHT22;1107;48.654;9.250;2022-09-14T16:41:41;19.40;1.00
2202;DHT22;1107;48.654;9.250;2022-09-14T16:44:11;19.40;1.00
2202;DHT22;1107;48.654;9.250;2022-09-14T16:46:38;19.30;1.00
2202;DHT22;1107;48.654;9.250;2022-09-14T16:49:06;19.30;1.00
2202;DHT22;1107;48.654;9.250;2022-09-14T16:51:34;19.30;1.00